sensor_id;sensor_type;location;lat;lon;timestamp;P1;durP1;ratioP1;P2;durP2;ratioP2
78336;SDS011;67610;51.588;7.002;2024-03-23T00:54:23;8.98;;;2.00;;
78336;SDS011;67610;51.588;7.002;2024-03-23T00:56:48;6.72;;;1.80;;
78336;SDS011;67610;51.588;7.002;2024-03-23T00:59:13;7.47;;;1.90;;
78336;SDS011;67610;51.588;7.002;2024-03-23T01:01:39;5.60;;;1.80;;
78336;SDS011;67610;51.588;7.002;2024-03-23T01:04:04;5.30;;;1.73;;
78336;SDS011;67610;51.588;7.002;2024-03-23T01:06:30;8.15;;;1.80;;
78336;SDS011;67610;51.588;7.002;2024-03-23T01:08:55;5.05;;;1.80;;
78336;SDS011;67610;51.588;7.002;2024-03-23T01:11:20;5.50;;;1.60;;
78336;SDS011;67610;51.588;7.002;2024-03-23T01:13:46;5.45;;;1.83;;
78336;SDS011;67610;51.588;7.002;2024-03-23T01:16:11;6.43;;;1.92;;
78336;SDS011;67610;51.588;7.002;2024-03-23T01:18:36;7.35;;;1.75;;
78336;SDS011;67610;51.588;7.002;2024-03-23T01:21:02;7.57;;;1.75;;
78336;SDS011;67610;51.588;7.002;2024-03-23T01:23:27;3.83;;;1.60;;
78336;SDS011;67610;51.588;7.002;2024-03-23T01:25:53;5.93;;;1.63;;
78336;SDS011;67610;51.588;7.002;2024-03-23T01:28:22;5.43;;;1.65;;
78336;SDS011;67610;51.588;7.002;2024-03-23T01:30:48;6.15;;;1.60;;
78336;SDS011;67610;51.588;7.002;2024-03-23T01:33:17;7.50;;;1.90;;
78336;SDS011;67610;51.588;7.002;2024-03-23T01:35:42;5.72;;;1.85;;
78336;SDS011;67610;51.588;7.002;2024-03-23T01:38:07;7.13;;;1.60;;
78336;SDS011;67610;51.588;7.002;2024-03-23T01:40:33;8.52;;;1.85;;
78336;SDS011;67610;51.588;7.002;2024-03-23T01:42:59;6.90;;;1.27;;
78336;SDS011;67610;51.588;7.002;2024-03-23T01:45:29;5.30;;;1.60;;
78336;SDS011;67610;51.588;7.002;2024-03-23T01:47:55;4.55;;;1.50;;
78336;SDS011;67610;51.588;7.002;2024-03-23T01:50:21;9.48;;;1.67;;
78336;SDS011;67610;51.588;7.002;2024-03-23T01:52:48;8.45;;;1.83;;
78336;SDS011;67610;51.588;7.002;2024-03-23T01:55:13;6.68;;;1.58;;
78336;SDS011;67610;51.588;7.002;2024-03-23T01:57:39;6.55;;;1.23;;
78336;SDS011;67610;51.588;7.002;2024-03-23T02:00:05;5.63;;;1.60;;
78336;SDS011;67610;51.588;7.002;2024-03-23T02:02:31;4.65;;;1.50;;
78336;SDS011;67610;51.588;7.002;2024-03-23T02:04:57;3.88;;;1.42;;
78336;SDS011;67610;51.588;7.002;2024-03-23T02:07:22;3.55;;;1.23;;
78336;SDS011;67610;51.588;7.002;2024-03-23T02:09:48;4.47;;;1.33;;
78336;SDS011;67610;51.588;7.002;2024-03-23T02:12:15;6.25;;;1.63;;
78336;SDS011;67610;51.588;7.002;2024-03-23T02:14:41;4.57;;;1.33;;
78336;SDS011;67610;51.588;7.002;2024-03-23T02:17:06;5.68;;;1.20;;
78336;SDS011;67610;51.588;7.002;2024-03-23T02:19:31;3.78;;;0.95;;
78336;SDS011;67610;51.588;7.002;2024-03-23T02:21:57;3.88;;;1.17;;
78336;SDS011;67610;51.588;7.002;2024-03-23T02:24:22;3.72;;;1.30;;
78336;SDS011;67610;51.588;7.002;2024-03-23T02:26:48;4.68;;;1.30;;
78336;SDS011;67610;51.588;7.002;2024-03-23T02:29:14;4.60;;;1.55;;
78336;SDS011;67610;51.588;7.002;2024-03-23T02:31:40;7.35;;;1.95;;
78336;SDS011;67610;51.588;7.002;2024-03-23T02:34:05;5.47;;;1.52;;
78336;SDS011;67610;51.588;7.002;2024-03-23T02:36:31;6.50;;;1.45;;
78336;SDS011;67610;51.588;7.002;2024-03-23T02:38:56;5.90;;;1.42;;
78336;SDS011;67610;51.588;7.002;2024-03-23T02:41:21;2.92;;;0.98;;
78336;SDS011;67610;51.588;7.002;2024-03-23T02:43:49;3.22;;;1.25;;
78336;SDS011;67610;51.588;7.002;2024-03-23T02:46:15;2.80;;;1.17;;
78336;SDS011;67610;51.588;7.002;2024-03-23T02:48:41;4.10;;;1.17;;
78336;SDS011;67610;51.588;7.002;2024-03-23T02:51:06;8.43;;;1.50;;
78336;SDS011;67610;51.588;7.002;2024-03-23T02:53:31;6.03;;;1.17;;
78336;SDS011;67610;51.588;7.002;2024-03-23T02:56:00;3.55;;;1.25;;
78336;SDS011;67610;51.588;7.002;2024-03-23T02:58:25;8.13;;;1.73;;
78336;SDS011;67610;51.588;7.002;2024-03-23T03:00:51;5.88;;;1.20;;
78336;SDS011;67610;51.588;7.002;2024-03-23T03:03:21;5.13;;;1.50;;
78336;SDS011;67610;51.588;7.002;2024-03-23T03:05:46;3.42;;;0.90;;
78336;SDS011;67610;51.588;7.002;2024-03-23T03:08:11;4.43;;;1.63;;
78336;SDS011;67610;51.588;7.002;2024-03-23T03:10:37;5.40;;;1.38;;
78336;SDS011;67610;51.588;7.002;2024-03-23T03:13:02;4.57;;;1.40;;
78336;SDS011;67610;51.588;7.002;2024-03-23T03:15:28;2.85;;;1.23;;
78336;SDS011;67610;51.588;7.002;2024-03-23T03:17:53;2.83;;;1.20;;
78336;SDS011;67610;51.588;7.002;2024-03-23T03:20:19;8.65;;;1.38;;
78336;SDS011;67610;51.588;7.002;2024-03-23T03:22:44;5.55;;;1.23;;
78336;SDS011;67610;51.588;7.002;2024-03-23T03:25:10;5.75;;;1.50;;
78336;SDS011;67610;51.588;7.002;2024-03-23T03:27:35;4.03;;;1.52;;
78336;SDS011;67610;51.588;7.002;2024-03-23T03:30:00;2.47;;;1.10;;
78336;SDS011;67610;51.588;7.002;2024-03-23T03:32:29;8.25;;;1.20;;
78336;SDS011;67610;51.588;7.002;2024-03-23T03:34:55;5.93;;;1.35;;
78336;SDS011;67610;51.588;7.002;2024-03-23T03:37:23;3.55;;;1.00;;
78336;SDS011;67610;51.588;7.002;2024-03-23T03:39:49;6.40;;;1.48;;
78336;SDS011;67610;51.588;7.002;2024-03-23T03:42:14;4.55;;;1.58;;
78336;SDS011;67610;51.588;7.002;2024-03-23T03:44:40;5.75;;;1.67;;
78336;SDS011;67610;51.588;7.002;2024-03-23T03:47:05;6.15;;;1.42;;
78336;SDS011;67610;51.588;7.002;2024-03-23T03:49:31;4.40;;;1.13;;
78336;SDS011;67610;51.588;7.002;2024-03-23T03:51:58;3.92;;;1.30;;
78336;SDS011;67610;51.588;7.002;2024-03-23T03:54:23;3.83;;;1.20;;
78336;SDS011;67610;51.588;7.002;2024-03-23T03:56:49;5.38;;;1.10;;
78336;SDS011;67610;51.588;7.002;2024-03-23T03:59:17;5.03;;;2.08;;
78336;SDS011;67610;51.588;7.002;2024-03-23T04:01:42;3.58;;;1.63;;
78336;SDS011;67610;51.588;7.002;2024-03-23T04:04:08;4.03;;;1.40;;
78336;SDS011;67610;51.588;7.002;2024-03-23T04:06:33;5.93;;;1.70;;
78336;SDS011;67610;51.588;7.002;2024-03-23T04:08:59;6.38;;;1.55;;
78336;SDS011;67610;51.588;7.002;2024-03-23T04:11:24;6.15;;;1.13;;
78336;SDS011;67610;51.588;7.002;2024-03-23T04:13:50;6.80;;;1.52;;
78336;SDS011;67610;51.588;7.002;2024-03-23T04:16:28;7.38;;;1.65;;
78336;SDS011;67610;51.588;7.002;2024-03-23T04:18:59;6.30;;;1.55;;
78336;SDS011;67610;51.588;7.002;2024-03-23T04:21:25;6.47;;;1.67;;
78336;SDS011;67610;51.588;7.002;2024-03-23T04:23:50;6.45;;;1.50;;
78336;SDS011;67610;51.588;7.002;2024-03-23T04:26:15;5.00;;;1.30;;
78336;SDS011;67610;51.588;7.002;2024-03-23T04:28:41;4.05;;;1.50;;
78336;SDS011;67610;51.588;7.002;2024-03-23T04:31:07;5.75;;;1.38;;
78336;SDS011;67610;51.588;7.002;2024-03-23T04:33:32;3.85;;;1.35;;
78336;SDS011;67610;51.588;7.002;2024-03-23T04:35:57;3.78;;;1.63;;
78336;SDS011;67610;51.588;7.002;2024-03-23T04:38:23;5.28;;;1.63;;
78336;SDS011;67610;51.588;7.002;2024-03-23T04:40:57;4.80;;;1.38;;
78336;SDS011;67610;51.588;7.002;2024-03-23T04:43:24;7.10;;;1.50;;
78336;SDS011;67610;51.588;7.002;2024-03-23T04:45:51;4.03;;;1.30;;
78336;SDS011;67610;51.588;7.002;2024-03-23T04:48:16;6.72;;;1.75;;
78336;SDS011;67610;51.588;7.002;2024-03-23T04:50:41;9.25;;;1.60;;
78336;SDS011;67610;51.588;7.002;2024-03-23T04:53:07;7.45;;;1.85;;
78336;SDS011;67610;51.588;7.002;2024-03-23T04:55:32;6.85;;;1.65;;
78336;SDS011;67610;51.588;7.002;2024-03-23T04:57:58;6.97;;;1.50;;
78336;SDS011;67610;51.588;7.002;2024-03-23T05:00:23;3.65;;;1.45;;
78336;SDS011;67610;51.588;7.002;2024-03-23T05:02:50;7.13;;;2.13;;
78336;SDS011;67610;51.588;7.002;2024-03-23T05:05:15;6.40;;;2.00;;
78336;SDS011;67610;51.588;7.002;2024-03-23T05:07:40;8.52;;;2.22;;
78336;SDS011;67610;51.588;7.002;2024-03-23T05:10:07;5.07;;;2.08;;
78336;SDS011;67610;51.588;7.002;2024-03-23T05:12:36;8.90;;;2.75;;
78336;SDS011;67610;51.588;7.002;2024-03-23T05:15:05;7.70;;;2.22;;
78336;SDS011;67610;51.588;7.002;2024-03-23T05:17:34;12.35;;;2.25;;
78336;SDS011;67610;51.588;7.002;2024-03-23T05:20:00;10.27;;;2.80;;
78336;SDS011;67610;51.588;7.002;2024-03-23T05:22:25;7.40;;;2.28;;
78336;SDS011;67610;51.588;7.002;2024-03-23T05:24:52;6.57;;;2.63;;
78336;SDS011;67610;51.588;7.002;2024-03-23T05:27:17;7.43;;;2.55;;
78336;SDS011;67610;51.588;7.002;2024-03-23T05:29:43;7.93;;;2.55;;
78336;SDS011;67610;51.588;7.002;2024-03-23T05:32:08;7.13;;;2.55;;
78336;SDS011;67610;51.588;7.002;2024-03-23T05:34:33;7.50;;;2.80;;
78336;SDS011;67610;51.588;7.002;2024-03-23T05:36:59;9.68;;;3.05;;
78336;SDS011;67610;51.588;7.002;2024-03-23T05:39:24;8.77;;;2.80;;
78336;SDS011;67610;51.588;7.002;2024-03-23T05:41:50;9.57;;;3.65;;
78336;SDS011;67610;51.588;7.002;2024-03-23T05:44:16;7.95;;;3.17;;
78336;SDS011;67610;51.588;7.002;2024-03-23T05:46:41;10.60;;;4.82;;
78336;SDS011;67610;51.588;7.002;2024-03-23T05:49:07;8.50;;;3.00;;
78336;SDS011;67610;51.588;7.002;2024-03-23T05:51:33;7.97;;;3.55;;
78336;SDS011;67610;51.588;7.002;2024-03-23T05:53:58;7.15;;;3.15;;
78336;SDS011;67610;51.588;7.002;2024-03-23T05:56:24;9.70;;;3.40;;
78336;SDS011;67610;51.588;7.002;2024-03-23T05:58:51;9.13;;;3.60;;
78336;SDS011;67610;51.588;7.002;2024-03-23T06:01:16;8.05;;;3.00;;
78336;SDS011;67610;51.588;7.002;2024-03-23T06:03:43;9.55;;;3.80;;
78336;SDS011;67610;51.588;7.002;2024-03-23T06:06:09;11.25;;;3.47;;
78336;SDS011;67610;51.588;7.002;2024-03-23T06:08:36;12.00;;;4.03;;
78336;SDS011;67610;51.588;7.002;2024-03-23T06:11:04;11.68;;;3.72;;
78336;SDS011;67610;51.588;7.002;2024-03-23T06:13:31;8.77;;;3.58;;
78336;SDS011;67610;51.588;7.002;2024-03-23T06:15:57;10.77;;;3.90;;
78336;SDS011;67610;51.588;7.002;2024-03-23T06:18:23;4.82;;;3.55;;
78336;SDS011;67610;51.588;7.002;2024-03-23T06:20:49;8.30;;;3.10;;
78336;SDS011;67610;51.588;7.002;2024-03-23T06:23:14;9.75;;;3.35;;
78336;SDS011;67610;51.588;7.002;2024-03-23T06:25:41;7.85;;;3.28;;
78336;SDS011;67610;51.588;7.002;2024-03-23T06:28:06;10.27;;;4.00;;
78336;SDS011;67610;51.588;7.002;2024-03-23T06:30:31;10.75;;;3.72;;
78336;SDS011;67610;51.588;7.002;2024-03-23T06:32:57;9.20;;;4.22;;
78336;SDS011;67610;51.588;7.002;2024-03-23T06:35:22;9.73;;;4.07;;
78336;SDS011;67610;51.588;7.002;2024-03-23T06:37:48;15.50;;;3.70;;
78336;SDS011;67610;51.588;7.002;2024-03-23T06:40:13;8.65;;;3.38;;
78336;SDS011;67610;51.588;7.002;2024-03-23T06:42:39;11.10;;;3.08;;
78336;SDS011;67610;51.588;7.002;2024-03-23T06:45:05;9.02;;;3.30;;
78336;SDS011;67610;51.588;7.002;2024-03-23T06:47:31;6.85;;;2.97;;
78336;SDS011;67610;51.588;7.002;2024-03-23T06:49:56;7.85;;;3.10;;
78336;SDS011;67610;51.588;7.002;2024-03-23T06:52:22;7.70;;;3.35;;
78336;SDS011;67610;51.588;7.002;2024-03-23T06:54:47;7.57;;;2.95;;
78336;SDS011;67610;51.588;7.002;2024-03-23T06:57:12;5.00;;;3.15;;
78336;SDS011;67610;51.588;7.002;2024-03-23T06:59:38;7.35;;;2.92;;
78336;SDS011;67610;51.588;7.002;2024-03-23T07:02:06;8.18;;;2.90;;
78336;SDS011;67610;51.588;7.002;2024-03-23T07:04:33;6.80;;;2.97;;
78336;SDS011;67610;51.588;7.002;2024-03-23T07:06:59;5.82;;;2.55;;
78336;SDS011;67610;51.588;7.002;2024-03-23T07:09:25;9.00;;;3.30;;
78336;SDS011;67610;51.588;7.002;2024-03-23T07:11:53;6.40;;;2.50;;
78336;SDS011;67610;51.588;7.002;2024-03-23T07:14:19;7.22;;;2.75;;
78336;SDS011;67610;51.588;7.002;2024-03-23T07:16:45;4.18;;;2.20;;
78336;SDS011;67610;51.588;7.002;2024-03-23T07:19:10;8.65;;;2.97;;
78336;SDS011;67610;51.588;7.002;2024-03-23T07:21:35;4.13;;;1.85;;
78336;SDS011;67610;51.588;7.002;2024-03-23T07:24:03;9.98;;;3.22;;
78336;SDS011;67610;51.588;7.002;2024-03-23T07:26:31;7.00;;;2.50;;
78336;SDS011;67610;51.588;7.002;2024-03-23T07:28:57;7.93;;;2.55;;
78336;SDS011;67610;51.588;7.002;2024-03-23T07:31:22;8.52;;;2.33;;
78336;SDS011;67610;51.588;7.002;2024-03-23T07:33:48;6.10;;;2.35;;
78336;SDS011;67610;51.588;7.002;2024-03-23T07:36:14;8.13;;;2.45;;
78336;SDS011;67610;51.588;7.002;2024-03-23T07:38:43;7.38;;;2.58;;
78336;SDS011;67610;51.588;7.002;2024-03-23T07:41:12;8.60;;;2.47;;
78336;SDS011;67610;51.588;7.002;2024-03-23T07:43:40;4.57;;;2.10;;
78336;SDS011;67610;51.588;7.002;2024-03-23T07:46:05;7.40;;;2.22;;
78336;SDS011;67610;51.588;7.002;2024-03-23T07:48:31;10.40;;;2.63;;
78336;SDS011;67610;51.588;7.002;2024-03-23T07:53:26;9.90;;;2.80;;
78336;SDS011;67610;51.588;7.002;2024-03-23T07:55:57;7.10;;;2.67;;
78336;SDS011;67610;51.588;7.002;2024-03-23T07:58:24;7.90;;;2.63;;
78336;SDS011;67610;51.588;7.002;2024-03-23T08:00:50;9.82;;;3.03;;
78336;SDS011;67610;51.588;7.002;2024-03-23T08:03:15;8.48;;;3.03;;
78336;SDS011;67610;51.588;7.002;2024-03-23T08:05:41;7.75;;;2.60;;
78336;SDS011;67610;51.588;7.002;2024-03-23T08:08:06;9.48;;;3.25;;
78336;SDS011;67610;51.588;7.002;2024-03-23T08:10:32;10.10;;;3.33;;
78336;SDS011;67610;51.588;7.002;2024-03-23T08:12:57;10.73;;;2.72;;
78336;SDS011;67610;51.588;7.002;2024-03-23T08:15:22;10.25;;;3.17;;
78336;SDS011;67610;51.588;7.002;2024-03-23T08:17:48;9.25;;;3.00;;
78336;SDS011;67610;51.588;7.002;2024-03-23T08:20:14;7.15;;;2.70;;
78336;SDS011;67610;51.588;7.002;2024-03-23T08:22:40;8.73;;;2.80;;
78336;SDS011;67610;51.588;7.002;2024-03-23T08:25:05;8.55;;;2.95;;
78336;SDS011;67610;51.588;7.002;2024-03-23T08:27:31;14.15;;;3.35;;
78336;SDS011;67610;51.588;7.002;2024-03-23T08:29:56;12.50;;;3.20;;
78336;SDS011;67610;51.588;7.002;2024-03-23T08:32:22;8.93;;;2.92;;
78336;SDS011;67610;51.588;7.002;2024-03-23T08:34:47;10.68;;;2.47;;
78336;SDS011;67610;51.588;7.002;2024-03-23T08:37:13;9.02;;;3.08;;
78336;SDS011;67610;51.588;7.002;2024-03-23T08:39:38;12.00;;;2.72;;
78336;SDS011;67610;51.588;7.002;2024-03-23T08:42:04;7.82;;;2.83;;
78336;SDS011;67610;51.588;7.002;2024-03-23T08:44:29;7.40;;;2.55;;
78336;SDS011;67610;51.588;7.002;2024-03-23T08:46:57;9.43;;;2.53;;
78336;SDS011;67610;51.588;7.002;2024-03-23T08:49:24;10.05;;;2.80;;
78336;SDS011;67610;51.588;7.002;2024-03-23T08:51:49;8.57;;;2.17;;
78336;SDS011;67610;51.588;7.002;2024-03-23T08:54:14;5.93;;;2.40;;
78336;SDS011;67610;51.588;7.002;2024-03-23T08:56:40;6.10;;;1.77;;
78336;SDS011;67610;51.588;7.002;2024-03-23T08:59:05;8.63;;;2.20;;
78336;SDS011;67610;51.588;7.002;2024-03-23T09:01:33;6.78;;;1.83;;
78336;SDS011;67610;51.588;7.002;2024-03-23T09:04:14;5.38;;;1.77;;
78336;SDS011;67610;51.588;7.002;2024-03-23T09:06:39;12.23;;;2.47;;
78336;SDS011;67610;51.588;7.002;2024-03-23T09:09:07;8.55;;;2.33;;
78336;SDS011;67610;51.588;7.002;2024-03-23T09:11:32;5.30;;;2.17;;
78336;SDS011;67610;51.588;7.002;2024-03-23T09:13:58;6.78;;;2.25;;
78336;SDS011;67610;51.588;7.002;2024-03-23T09:16:23;8.73;;;2.22;;
78336;SDS011;67610;51.588;7.002;2024-03-23T09:18:48;3.95;;;2.10;;
78336;SDS011;67610;51.588;7.002;2024-03-23T09:21:14;3.33;;;1.40;;
78336;SDS011;67610;51.588;7.002;2024-03-23T09:23:40;5.55;;;2.17;;
78336;SDS011;67610;51.588;7.002;2024-03-23T09:26:08;3.92;;;2.05;;
78336;SDS011;67610;51.588;7.002;2024-03-23T09:28:33;4.53;;;1.67;;
78336;SDS011;67610;51.588;7.002;2024-03-23T09:31:02;2.95;;;1.45;;
78336;SDS011;67610;51.588;7.002;2024-03-23T09:33:32;3.42;;;1.48;;
78336;SDS011;67610;51.588;7.002;2024-03-23T09:35:58;4.80;;;2.08;;
78336;SDS011;67610;51.588;7.002;2024-03-23T09:38:27;4.47;;;1.73;;
78336;SDS011;67610;51.588;7.002;2024-03-23T09:40:53;6.53;;;1.70;;
78336;SDS011;67610;51.588;7.002;2024-03-23T09:43:22;5.72;;;1.75;;
78336;SDS011;67610;51.588;7.002;2024-03-23T09:45:47;7.60;;;1.58;;
78336;SDS011;67610;51.588;7.002;2024-03-23T09:48:14;6.55;;;1.48;;
78336;SDS011;67610;51.588;7.002;2024-03-23T09:50:41;5.13;;;1.65;;
78336;SDS011;67610;51.588;7.002;2024-03-23T09:53:08;6.50;;;1.88;;
78336;SDS011;67610;51.588;7.002;2024-03-23T09:55:34;4.35;;;1.63;;
78336;SDS011;67610;51.588;7.002;2024-03-23T09:58:01;4.65;;;1.70;;
78336;SDS011;67610;51.588;7.002;2024-03-23T10:00:27;5.40;;;1.58;;
78336;SDS011;67610;51.588;7.002;2024-03-23T10:02:55;5.80;;;1.40;;
78336;SDS011;67610;51.588;7.002;2024-03-23T10:05:21;5.75;;;1.70;;
78336;SDS011;67610;51.588;7.002;2024-03-23T10:10:16;6.15;;;1.90;;
78336;SDS011;67610;51.588;7.002;2024-03-23T10:12:45;5.28;;;1.50;;
78336;SDS011;67610;51.588;7.002;2024-03-23T10:15:18;5.25;;;1.45;;
78336;SDS011;67610;51.588;7.002;2024-03-23T10:17:49;4.82;;;1.98;;
78336;SDS011;67610;51.588;7.002;2024-03-23T10:20:21;9.82;;;1.90;;
78336;SDS011;67610;51.588;7.002;2024-03-23T10:22:48;4.38;;;1.50;;
78336;SDS011;67610;51.588;7.002;2024-03-23T10:25:14;8.45;;;1.67;;
78336;SDS011;67610;51.588;7.002;2024-03-23T10:27:42;4.03;;;1.55;;
78336;SDS011;67610;51.588;7.002;2024-03-23T10:30:09;5.97;;;1.40;;
78336;SDS011;67610;51.588;7.002;2024-03-23T10:32:36;7.32;;;2.35;;
78336;SDS011;67610;51.588;7.002;2024-03-23T10:37:44;5.75;;;1.70;;
78336;SDS011;67610;51.588;7.002;2024-03-23T10:40:11;4.15;;;1.20;;
78336;SDS011;67610;51.588;7.002;2024-03-23T10:42:37;5.50;;;1.13;;
78336;SDS011;67610;51.588;7.002;2024-03-23T10:45:04;2.83;;;1.00;;
78336;SDS011;67610;51.588;7.002;2024-03-23T10:47:30;4.35;;;1.40;;
78336;SDS011;67610;51.588;7.002;2024-03-23T10:49:57;2.67;;;1.23;;
78336;SDS011;67610;51.588;7.002;2024-03-23T10:52:22;4.40;;;1.10;;
78336;SDS011;67610;51.588;7.002;2024-03-23T10:54:51;2.55;;;0.80;;
78336;SDS011;67610;51.588;7.002;2024-03-23T10:57:20;2.00;;;1.05;;
78336;SDS011;67610;51.588;7.002;2024-03-23T10:59:48;6.28;;;1.27;;
78336;SDS011;67610;51.588;7.002;2024-03-23T11:02:20;4.85;;;0.90;;
78336;SDS011;67610;51.588;7.002;2024-03-23T11:04:46;6.47;;;1.30;;
78336;SDS011;67610;51.588;7.002;2024-03-23T11:07:32;2.60;;;0.95;;
78336;SDS011;67610;51.588;7.002;2024-03-23T11:09:58;4.28;;;0.90;;
78336;SDS011;67610;51.588;7.002;2024-03-23T11:12:28;1.85;;;0.70;;
78336;SDS011;67610;51.588;7.002;2024-03-23T11:17:31;2.00;;;0.77;;
78336;SDS011;67610;51.588;7.002;2024-03-23T11:25:24;3.63;;;1.00;;
78336;SDS011;67610;51.588;7.002;2024-03-23T11:27:51;1.73;;;0.60;;
78336;SDS011;67610;51.588;7.002;2024-03-23T11:30:18;2.10;;;0.75;;
78336;SDS011;67610;51.588;7.002;2024-03-23T11:32:47;2.65;;;0.75;;
78336;SDS011;67610;51.588;7.002;2024-03-23T11:35:30;2.60;;;0.70;;
78336;SDS011;67610;51.588;7.002;2024-03-23T11:40:40;3.40;;;0.73;;
78336;SDS011;67610;51.588;7.002;2024-03-23T11:43:11;8.07;;;1.30;;
78336;SDS011;67610;51.588;7.002;2024-03-23T11:48:15;4.28;;;1.15;;
78336;SDS011;67610;51.588;7.002;2024-03-23T11:50:49;3.55;;;1.42;;
78336;SDS011;67610;51.588;7.002;2024-03-23T11:53:23;3.05;;;1.30;;
78336;SDS011;67610;51.588;7.002;2024-03-23T11:58:15;5.90;;;1.30;;
78336;SDS011;67610;51.588;7.002;2024-03-23T12:00:42;3.53;;;1.40;;
78336;SDS011;67610;51.588;7.002;2024-03-23T12:03:13;4.45;;;1.20;;
78336;SDS011;67610;51.588;7.002;2024-03-23T12:05:39;3.65;;;1.38;;
78336;SDS011;67610;51.588;7.002;2024-03-23T12:10:47;5.60;;;1.65;;
78336;SDS011;67610;51.588;7.002;2024-03-23T12:13:17;3.45;;;1.27;;
78336;SDS011;67610;51.588;7.002;2024-03-23T12:15:44;7.15;;;0.80;;
78336;SDS011;67610;51.588;7.002;2024-03-23T12:18:10;3.58;;;1.02;;
78336;SDS011;67610;51.588;7.002;2024-03-23T12:20:35;1.88;;;1.13;;
78336;SDS011;67610;51.588;7.002;2024-03-23T12:23:06;2.95;;;1.17;;
78336;SDS011;67610;51.588;7.002;2024-03-23T12:25:36;3.15;;;1.30;;
78336;SDS011;67610;51.588;7.002;2024-03-23T12:28:02;2.85;;;1.25;;
78336;SDS011;67610;51.588;7.002;2024-03-23T12:30:29;5.25;;;1.45;;
78336;SDS011;67610;51.588;7.002;2024-03-23T12:32:55;2.78;;;1.20;;
78336;SDS011;67610;51.588;7.002;2024-03-23T12:35:20;3.30;;;1.27;;
78336;SDS011;67610;51.588;7.002;2024-03-23T12:37:46;5.57;;;1.27;;
78336;SDS011;67610;51.588;7.002;2024-03-23T12:40:11;3.92;;;1.30;;
78336;SDS011;67610;51.588;7.002;2024-03-23T12:42:39;3.40;;;1.35;;
78336;SDS011;67610;51.588;7.002;2024-03-23T12:45:04;6.35;;;1.20;;
78336;SDS011;67610;51.588;7.002;2024-03-23T12:47:30;3.45;;;0.98;;
78336;SDS011;67610;51.588;7.002;2024-03-23T12:49:55;3.50;;;1.00;;
78336;SDS011;67610;51.588;7.002;2024-03-23T12:52:21;2.50;;;0.63;;
78336;SDS011;67610;51.588;7.002;2024-03-23T12:54:49;4.03;;;0.75;;
78336;SDS011;67610;51.588;7.002;2024-03-23T12:57:14;4.97;;;1.02;;
78336;SDS011;67610;51.588;7.002;2024-03-23T12:59:39;3.33;;;0.90;;
78336;SDS011;67610;51.588;7.002;2024-03-23T13:02:05;5.13;;;1.10;;
78336;SDS011;67610;51.588;7.002;2024-03-23T13:04:31;3.58;;;0.73;;
78336;SDS011;67610;51.588;7.002;2024-03-23T13:06:56;2.83;;;0.77;;
78336;SDS011;67610;51.588;7.002;2024-03-23T13:09:22;2.70;;;0.68;;
78336;SDS011;67610;51.588;7.002;2024-03-23T13:11:47;2.63;;;1.10;;
78336;SDS011;67610;51.588;7.002;2024-03-23T13:14:12;6.70;;;1.75;;
78336;SDS011;67610;51.588;7.002;2024-03-23T13:16:41;7.05;;;1.80;;
78336;SDS011;67610;51.588;7.002;2024-03-23T13:19:07;5.72;;;1.60;;
78336;SDS011;67610;51.588;7.002;2024-03-23T13:21:32;4.78;;;1.70;;
78336;SDS011;67610;51.588;7.002;2024-03-23T13:23:57;6.47;;;1.77;;
78336;SDS011;67610;51.588;7.002;2024-03-23T13:26:23;3.70;;;1.40;;
78336;SDS011;67610;51.588;7.002;2024-03-23T13:28:48;2.25;;;1.35;;
78336;SDS011;67610;51.588;7.002;2024-03-23T13:31:13;5.55;;;1.30;;
78336;SDS011;67610;51.588;7.002;2024-03-23T13:33:39;4.10;;;1.17;;
78336;SDS011;67610;51.588;7.002;2024-03-23T13:36:05;6.20;;;1.05;;
78336;SDS011;67610;51.588;7.002;2024-03-23T13:38:30;3.20;;;1.05;;
78336;SDS011;67610;51.588;7.002;2024-03-23T13:40:56;4.50;;;0.85;;
78336;SDS011;67610;51.588;7.002;2024-03-23T13:43:23;4.43;;;1.20;;
78336;SDS011;67610;51.588;7.002;2024-03-23T13:45:53;3.42;;;1.52;;
78336;SDS011;67610;51.588;7.002;2024-03-23T13:48:20;3.17;;;1.60;;
78336;SDS011;67610;51.588;7.002;2024-03-23T13:51:02;4.60;;;1.48;;
78336;SDS011;67610;51.588;7.002;2024-03-23T13:53:29;5.38;;;1.50;;
78336;SDS011;67610;51.588;7.002;2024-03-23T13:55:54;2.65;;;1.48;;
78336;SDS011;67610;51.588;7.002;2024-03-23T13:58:20;5.10;;;1.25;;
78336;SDS011;67610;51.588;7.002;2024-03-23T14:00:45;5.03;;;1.63;;
78336;SDS011;67610;51.588;7.002;2024-03-23T14:03:12;4.28;;;1.40;;
78336;SDS011;67610;51.588;7.002;2024-03-23T14:05:38;3.42;;;1.17;;
78336;SDS011;67610;51.588;7.002;2024-03-23T14:08:07;4.40;;;1.63;;
78336;SDS011;67610;51.588;7.002;2024-03-23T14:10:33;3.15;;;1.20;;
78336;SDS011;67610;51.588;7.002;2024-03-23T14:12:58;4.30;;;1.40;;
78336;SDS011;67610;51.588;7.002;2024-03-23T14:15:27;1.83;;;1.10;;
78336;SDS011;67610;51.588;7.002;2024-03-23T14:17:52;4.63;;;1.63;;
78336;SDS011;67610;51.588;7.002;2024-03-23T14:20:19;4.05;;;1.40;;
78336;SDS011;67610;51.588;7.002;2024-03-23T14:22:45;4.65;;;1.42;;
78336;SDS011;67610;51.588;7.002;2024-03-23T14:25:10;3.13;;;0.80;;
78336;SDS011;67610;51.588;7.002;2024-03-23T14:27:36;6.68;;;1.50;;
78336;SDS011;67610;51.588;7.002;2024-03-23T14:30:03;3.80;;;1.17;;
78336;SDS011;67610;51.588;7.002;2024-03-23T14:32:30;3.53;;;0.65;;
78336;SDS011;67610;51.588;7.002;2024-03-23T14:34:59;5.38;;;0.68;;
78336;SDS011;67610;51.588;7.002;2024-03-23T14:37:35;2.97;;;0.90;;
78336;SDS011;67610;51.588;7.002;2024-03-23T14:40:01;3.08;;;0.80;;
78336;SDS011;67610;51.588;7.002;2024-03-23T14:42:27;2.58;;;0.90;;
78336;SDS011;67610;51.588;7.002;2024-03-23T14:44:53;3.17;;;0.88;;
78336;SDS011;67610;51.588;7.002;2024-03-23T14:47:18;3.40;;;1.33;;
78336;SDS011;67610;51.588;7.002;2024-03-23T14:49:44;3.35;;;0.85;;
78336;SDS011;67610;51.588;7.002;2024-03-23T14:52:15;2.33;;;1.05;;
78336;SDS011;67610;51.588;7.002;2024-03-23T14:54:44;4.22;;;0.95;;
78336;SDS011;67610;51.588;7.002;2024-03-23T14:57:10;1.92;;;0.60;;
78336;SDS011;67610;51.588;7.002;2024-03-23T14:59:36;2.75;;;0.77;;
78336;SDS011;67610;51.588;7.002;2024-03-23T15:04:31;2.95;;;1.10;;
78336;SDS011;67610;51.588;7.002;2024-03-23T15:06:56;6.50;;;1.13;;
78336;SDS011;67610;51.588;7.002;2024-03-23T15:09:22;5.47;;;0.70;;
78336;SDS011;67610;51.588;7.002;2024-03-23T15:11:47;5.20;;;1.00;;
78336;SDS011;67610;51.588;7.002;2024-03-23T15:14:12;2.40;;;0.60;;
78336;SDS011;67610;51.588;7.002;2024-03-23T15:16:38;5.15;;;0.73;;
78336;SDS011;67610;51.588;7.002;2024-03-23T15:19:03;3.03;;;0.80;;
78336;SDS011;67610;51.588;7.002;2024-03-23T15:21:31;2.40;;;0.60;;
78336;SDS011;67610;51.588;7.002;2024-03-23T15:23:57;1.15;;;0.52;;
78336;SDS011;67610;51.588;7.002;2024-03-23T15:26:22;4.43;;;1.00;;
78336;SDS011;67610;51.588;7.002;2024-03-23T15:28:48;1.85;;;0.50;;
78336;SDS011;67610;51.588;7.002;2024-03-23T15:31:23;2.08;;;0.73;;
78336;SDS011;67610;51.588;7.002;2024-03-23T15:33:49;2.08;;;0.70;;
78336;SDS011;67610;51.588;7.002;2024-03-23T15:36:14;2.80;;;0.60;;
78336;SDS011;67610;51.588;7.002;2024-03-23T15:38:39;3.33;;;0.77;;
78336;SDS011;67610;51.588;7.002;2024-03-23T15:41:06;2.30;;;0.70;;
78336;SDS011;67610;51.588;7.002;2024-03-23T15:43:32;2.75;;;0.60;;
78336;SDS011;67610;51.588;7.002;2024-03-23T15:45:58;4.70;;;1.13;;
78336;SDS011;67610;51.588;7.002;2024-03-23T15:48:25;2.42;;;0.90;;
78336;SDS011;67610;51.588;7.002;2024-03-23T15:50:54;3.28;;;0.65;;
78336;SDS011;67610;51.588;7.002;2024-03-23T15:53:21;3.15;;;0.95;;
78336;SDS011;67610;51.588;7.002;2024-03-23T15:55:53;5.25;;;0.90;;
78336;SDS011;67610;51.588;7.002;2024-03-23T15:58:22;2.00;;;1.10;;
78336;SDS011;67610;51.588;7.002;2024-03-23T16:03:21;4.72;;;1.10;;
78336;SDS011;67610;51.588;7.002;2024-03-23T16:05:53;4.97;;;1.08;;
78336;SDS011;67610;51.588;7.002;2024-03-23T16:08:19;6.95;;;1.10;;